sensor_id;sensor_type;location;lat;lon;timestamp;pressure;altitude;pressure_sealevel;temperature;humidity
62928;BME280;51070;52.236;-0.892;2023-03-19T00:01:22;100141.90;;;8.84;83.68
62928;BME280;51070;52.236;-0.892;2023-03-19T00:03:47;100142.67;;;8.81;84.11
62928;BME280;51070;52.236;-0.892;2023-03-19T00:06:13;100148.46;;;8.79;84.26
62928;BME280;51070;52.236;-0.892;2023-03-19T00:08:38;100148.73;;;8.76;84.06
62928;BME280;51070;52.236;-0.892;2023-03-19T00:11:08;100154.36;;;8.74;84.18
62928;BME280;51070;52.236;-0.892;2023-03-19T00:13:35;100164.23;;;8.71;84.31
62928;BME280;51070;52.236;-0.892;2023-03-19T00:16:00;100172.44;;;8.69;84.34
62928;BME280;51070;52.236;-0.892;2023-03-19T00:18:26;100172.39;;;8.67;84.56
62928;BME280;51070;52.236;-0.892;2023-03-19T00:20:51;100168.97;;;8.68;84.70
62928;BME280;51070;52.236;-0.892;2023-03-19T00:23:17;100174.07;;;8.66;84.73
62928;BME280;51070;52.236;-0.892;2023-03-19T00:25:42;100183.30;;;8.63;84.88
62928;BME280;51070;52.236;-0.892;2023-03-19T00:28:08;100191.05;;;8.58;84.81
62928;BME280;51070;52.236;-0.892;2023-03-19T00:30:34;100181.22;;;8.52;84.96
62928;BME280;51070;52.236;-0.892;2023-03-19T00:33:01;100175.35;;;8.46;85.37
62928;BME280;51070;52.236;-0.892;2023-03-19T00:35:27;100176.77;;;8.42;85.67
62928;BME280;51070;52.236;-0.892;2023-03-19T00:37:52;100175.97;;;8.39;85.63
62928;BME280;51070;52.236;-0.892;2023-03-19T00:40:19;100165.23;;;8.36;85.31
62928;BME280;51070;52.236;-0.892;2023-03-19T00:42:45;100156.44;;;8.36;85.76
62928;BME280;51070;52.236;-0.892;2023-03-19T00:45:11;100162.38;;;8.34;85.83
62928;BME280;51070;52.236;-0.892;2023-03-19T00:47:37;100168.89;;;8.33;85.86
62928;BME280;51070;52.236;-0.892;2023-03-19T00:50:03;100178.56;;;8.34;85.99
62928;BME280;51070;52.236;-0.892;2023-03-19T00:52:29;100187.10;;;8.32;86.24
62928;BME280;51070;52.236;-0.892;2023-03-19T00:54:55;100191.38;;;8.31;86.81
62928;BME280;51070;52.236;-0.892;2023-03-19T00:57:20;100185.23;;;8.28;86.85
62928;BME280;51070;52.236;-0.892;2023-03-19T00:59:46;100179.17;;;8.27;87.00
62928;BME280;51070;52.236;-0.892;2023-03-19T01:02:12;100169.70;;;8.27;87.55
62928;BME280;51070;52.236;-0.892;2023-03-19T01:04:38;100176.58;;;8.27;87.72
62928;BME280;51070;52.236;-0.892;2023-03-19T01:07:03;100180.81;;;8.29;87.84
62928;BME280;51070;52.236;-0.892;2023-03-19T01:09:29;100181.57;;;8.31;88.14
62928;BME280;51070;52.236;-0.892;2023-03-19T01:11:55;100177.71;;;8.34;88.27
62928;BME280;51070;52.236;-0.892;2023-03-19T01:14:21;100179.17;;;8.36;88.16
62928;BME280;51070;52.236;-0.892;2023-03-19T01:16:46;100187.96;;;8.37;88.18
62928;BME280;51070;52.236;-0.892;2023-03-19T01:19:12;100191.92;;;8.37;88.15
62928;BME280;51070;52.236;-0.892;2023-03-19T01:21:38;100186.50;;;8.40;88.35
62928;BME280;51070;52.236;-0.892;2023-03-19T01:24:04;100185.54;;;8.41;88.20
62928;BME280;51070;52.236;-0.892;2023-03-19T01:26:30;100188.48;;;8.42;88.16
62928;BME280;51070;52.236;-0.892;2023-03-19T01:28:56;100194.70;;;8.43;87.98
62928;BME280;51070;52.236;-0.892;2023-03-19T01:31:22;100209.31;;;8.42;88.03
62928;BME280;51070;52.236;-0.892;2023-03-19T01:33:48;100209.21;;;8.39;87.97
62928;BME280;51070;52.236;-0.892;2023-03-19T01:36:13;100214.83;;;8.37;88.31
62928;BME280;51070;52.236;-0.892;2023-03-19T01:38:39;100223.06;;;8.37;88.36
62928;BME280;51070;52.236;-0.892;2023-03-19T01:41:05;100224.11;;;8.36;88.64
62928;BME280;51070;52.236;-0.892;2023-03-19T01:43:31;100226.35;;;8.37;88.61
62928;BME280;51070;52.236;-0.892;2023-03-19T01:46:06;100221.14;;;8.35;88.31
62928;BME280;51070;52.236;-0.892;2023-03-19T01:48:40;100228.16;;;8.34;88.37
62928;BME280;51070;52.236;-0.892;2023-03-19T01:51:09;100220.23;;;8.34;88.24
62928;BME280;51070;52.236;-0.892;2023-03-19T01:53:36;100225.53;;;8.33;87.47
62928;BME280;51070;52.236;-0.892;2023-03-19T01:56:34;100230.63;;;8.31;87.22
62928;BME280;51070;52.236;-0.892;2023-03-19T01:59:11;100226.67;;;8.31;87.36
62928;BME280;51070;52.236;-0.892;2023-03-19T02:01:42;100233.08;;;8.32;87.33
62928;BME280;51070;52.236;-0.892;2023-03-19T02:04:10;100234.05;;;8.30;87.17
62928;BME280;51070;52.236;-0.892;2023-03-19T02:06:38;100238.08;;;8.28;87.15
62928;BME280;51070;52.236;-0.892;2023-03-19T02:09:05;100241.00;;;8.23;87.00
62928;BME280;51070;52.236;-0.892;2023-03-19T02:11:31;100236.59;;;8.20;87.13
62928;BME280;51070;52.236;-0.892;2023-03-19T02:13:56;100237.86;;;8.17;87.36
62928;BME280;51070;52.236;-0.892;2023-03-19T02:16:22;100235.06;;;8.16;87.25
62928;BME280;51070;52.236;-0.892;2023-03-19T02:18:48;100243.94;;;8.13;87.37
62928;BME280;51070;52.236;-0.892;2023-03-19T02:21:16;100254.27;;;8.13;87.26
62928;BME280;51070;52.236;-0.892;2023-03-19T02:26:32;100265.89;;;8.11;87.01
62928;BME280;51070;52.236;-0.892;2023-03-19T02:28:58;100265.80;;;8.08;86.52
62928;BME280;51070;52.236;-0.892;2023-03-19T02:31:24;100258.97;;;8.05;86.13
62928;BME280;51070;52.236;-0.892;2023-03-19T02:34:04;100250.27;;;8.02;86.28
62928;BME280;51070;52.236;-0.892;2023-03-19T02:36:38;100264.77;;;7.98;86.20
62928;BME280;51070;52.236;-0.892;2023-03-19T02:39:11;100259.40;;;7.92;86.00
62928;BME280;51070;52.236;-0.892;2023-03-19T02:41:40;100260.25;;;7.88;85.94
62928;BME280;51070;52.236;-0.892;2023-03-19T02:44:08;100258.34;;;7.82;85.81
62928;BME280;51070;52.236;-0.892;2023-03-19T02:46:36;100256.80;;;7.78;85.87
62928;BME280;51070;52.236;-0.892;2023-03-19T02:49:02;100257.48;;;7.73;85.75
62928;BME280;51070;52.236;-0.892;2023-03-19T02:51:28;100259.02;;;7.68;85.64
62928;BME280;51070;52.236;-0.892;2023-03-19T02:53:54;100262.49;;;7.64;85.53
62928;BME280;51070;52.236;-0.892;2023-03-19T02:56:20;100272.11;;;7.59;85.41
62928;BME280;51070;52.236;-0.892;2023-03-19T02:58:45;100270.55;;;7.50;85.63
62928;BME280;51070;52.236;-0.892;2023-03-19T03:01:11;100272.04;;;7.43;85.99
62928;BME280;51070;52.236;-0.892;2023-03-19T03:03:36;100269.58;;;7.37;86.16
62928;BME280;51070;52.236;-0.892;2023-03-19T03:06:02;100268.54;;;7.33;86.11
62928;BME280;51070;52.236;-0.892;2023-03-19T03:08:27;100268.02;;;7.28;85.97
62928;BME280;51070;52.236;-0.892;2023-03-19T03:10:53;100264.88;;;7.22;86.10
62928;BME280;51070;52.236;-0.892;2023-03-19T03:13:18;100276.59;;;7.18;86.03
62928;BME280;51070;52.236;-0.892;2023-03-19T03:15:43;100280.05;;;7.14;86.12
62928;BME280;51070;52.236;-0.892;2023-03-19T03:18:09;100279.89;;;7.10;86.09
62928;BME280;51070;52.236;-0.892;2023-03-19T03:20:35;100285.97;;;7.08;86.11
62928;BME280;51070;52.236;-0.892;2023-03-19T03:23:00;100291.94;;;7.06;86.25
62928;BME280;51070;52.236;-0.892;2023-03-19T03:25:26;100294.88;;;7.03;86.13
62928;BME280;51070;52.236;-0.892;2023-03-19T03:27:52;100300.55;;;6.98;86.22
62928;BME280;51070;52.236;-0.892;2023-03-19T03:30:17;100306.39;;;6.94;86.32
62928;BME280;51070;52.236;-0.892;2023-03-19T03:32:43;100320.13;;;6.90;86.08
62928;BME280;51070;52.236;-0.892;2023-03-19T03:35:08;100318.35;;;6.84;86.42
62928;BME280;51070;52.236;-0.892;2023-03-19T03:37:34;100322.50;;;6.81;86.52
62928;BME280;51070;52.236;-0.892;2023-03-19T03:40:00;100321.57;;;6.79;86.53
62928;BME280;51070;52.236;-0.892;2023-03-19T03:42:31;100321.19;;;6.78;86.54
62928;BME280;51070;52.236;-0.892;2023-03-19T03:44:57;100321.17;;;6.78;86.46
62928;BME280;51070;52.236;-0.892;2023-03-19T03:47:22;100322.37;;;6.77;86.76
62928;BME280;51070;52.236;-0.892;2023-03-19T03:49:47;100329.73;;;6.77;86.67
62928;BME280;51070;52.236;-0.892;2023-03-19T03:52:13;100328.31;;;6.76;86.70
62928;BME280;51070;52.236;-0.892;2023-03-19T03:54:38;100337.08;;;6.76;86.79
62928;BME280;51070;52.236;-0.892;2023-03-19T03:57:04;100338.73;;;6.74;86.88
62928;BME280;51070;52.236;-0.892;2023-03-19T03:59:29;100342.32;;;6.73;86.77
62928;BME280;51070;52.236;-0.892;2023-03-19T04:01:55;100350.13;;;6.72;86.73
62928;BME280;51070;52.236;-0.892;2023-03-19T04:04:20;100352.83;;;6.71;86.99
62928;BME280;51070;52.236;-0.892;2023-03-19T04:06:46;100360.17;;;6.70;86.91
62928;BME280;51070;52.236;-0.892;2023-03-19T04:09:11;100365.64;;;6.69;87.10
62928;BME280;51070;52.236;-0.892;2023-03-19T04:11:37;100370.30;;;6.70;87.44
62928;BME280;51070;52.236;-0.892;2023-03-19T04:14:03;100371.26;;;6.72;87.37
62928;BME280;51070;52.236;-0.892;2023-03-19T04:16:29;100376.69;;;6.74;87.36
62928;BME280;51070;52.236;-0.892;2023-03-19T04:18:55;100380.80;;;6.78;87.32
62928;BME280;51070;52.236;-0.892;2023-03-19T04:21:20;100375.42;;;6.81;87.36
62928;BME280;51070;52.236;-0.892;2023-03-19T04:23:46;100375.45;;;6.86;87.41
62928;BME280;51070;52.236;-0.892;2023-03-19T04:26:11;100377.30;;;6.89;87.12
62928;BME280;51070;52.236;-0.892;2023-03-19T04:28:37;100381.48;;;6.90;86.91
62928;BME280;51070;52.236;-0.892;2023-03-19T04:31:06;100383.40;;;6.91;87.11
62928;BME280;51070;52.236;-0.892;2023-03-19T04:33:34;100385.86;;;6.93;87.04
62928;BME280;51070;52.236;-0.892;2023-03-19T04:36:00;100385.50;;;6.92;86.54
62928;BME280;51070;52.236;-0.892;2023-03-19T04:38:27;100395.40;;;6.90;86.57
62928;BME280;51070;52.236;-0.892;2023-03-19T04:40:53;100400.45;;;6.88;86.42
62928;BME280;51070;52.236;-0.892;2023-03-19T04:43:20;100397.08;;;6.86;86.63
62928;BME280;51070;52.236;-0.892;2023-03-19T04:45:46;100399.08;;;6.84;86.47
62928;BME280;51070;52.236;-0.892;2023-03-19T04:48:11;100398.14;;;6.83;86.51
62928;BME280;51070;52.236;-0.892;2023-03-19T04:50:37;100392.59;;;6.81;86.56
62928;BME280;51070;52.236;-0.892;2023-03-19T04:53:03;100394.06;;;6.79;86.45
62928;BME280;51070;52.236;-0.892;2023-03-19T04:55:29;100399.39;;;6.75;86.38
62928;BME280;51070;52.236;-0.892;2023-03-19T04:57:54;100398.56;;;6.72;86.47
62928;BME280;51070;52.236;-0.892;2023-03-19T05:00:20;100403.90;;;6.68;86.59
62928;BME280;51070;52.236;-0.892;2023-03-19T05:02:46;100403.76;;;6.65;86.59
62928;BME280;51070;52.236;-0.892;2023-03-19T05:05:12;100407.85;;;6.60;86.72
62928;BME280;51070;52.236;-0.892;2023-03-19T05:07:38;100409.98;;;6.58;86.74
62928;BME280;51070;52.236;-0.892;2023-03-19T05:10:05;100410.79;;;6.56;86.77
62928;BME280;51070;52.236;-0.892;2023-03-19T05:12:32;100412.90;;;6.54;86.81
62928;BME280;51070;52.236;-0.892;2023-03-19T05:14:58;100412.48;;;6.52;86.98
62928;BME280;51070;52.236;-0.892;2023-03-19T05:17:23;100414.02;;;6.52;87.04
62928;BME280;51070;52.236;-0.892;2023-03-19T05:19:49;100417.29;;;6.52;86.78
62928;BME280;51070;52.236;-0.892;2023-03-19T05:22:17;100423.92;;;6.51;86.96
62928;BME280;51070;52.236;-0.892;2023-03-19T05:24:42;100423.70;;;6.50;86.82
62928;BME280;51070;52.236;-0.892;2023-03-19T05:27:08;100430.88;;;6.49;87.05
62928;BME280;51070;52.236;-0.892;2023-03-19T05:29:33;100431.72;;;6.49;87.11
62928;BME280;51070;52.236;-0.892;2023-03-19T05:31:59;100432.77;;;6.49;87.11
62928;BME280;51070;52.236;-0.892;2023-03-19T05:34:27;100438.23;;;6.48;87.25
62928;BME280;51070;52.236;-0.892;2023-03-19T05:36:53;100447.23;;;6.46;86.92
62928;BME280;51070;52.236;-0.892;2023-03-19T05:39:19;100449.57;;;6.41;87.00
62928;BME280;51070;52.236;-0.892;2023-03-19T05:41:44;100448.47;;;6.35;86.97
62928;BME280;51070;52.236;-0.892;2023-03-19T05:44:10;100451.20;;;6.31;87.22
62928;BME280;51070;52.236;-0.892;2023-03-19T05:46:36;100452.79;;;6.24;87.04
62928;BME280;51070;52.236;-0.892;2023-03-19T05:49:01;100460.04;;;6.18;87.13
62928;BME280;51070;52.236;-0.892;2023-03-19T05:51:27;100458.77;;;6.13;87.30
62928;BME280;51070;52.236;-0.892;2023-03-19T05:53:52;100453.95;;;6.08;87.31
62928;BME280;51070;52.236;-0.892;2023-03-19T05:56:17;100457.41;;;6.05;87.38
62928;BME280;51070;52.236;-0.892;2023-03-19T05:58:43;100463.17;;;6.04;87.76
62928;BME280;51070;52.236;-0.892;2023-03-19T06:01:08;100467.65;;;6.05;87.81
62928;BME280;51070;52.236;-0.892;2023-03-19T06:03:34;100468.98;;;6.04;87.45
62928;BME280;51070;52.236;-0.892;2023-03-19T06:06:00;100470.05;;;6.04;87.80
62928;BME280;51070;52.236;-0.892;2023-03-19T06:08:25;100470.75;;;6.05;87.71
62928;BME280;51070;52.236;-0.892;2023-03-19T06:10:51;100471.62;;;6.05;87.54
62928;BME280;51070;52.236;-0.892;2023-03-19T06:13:17;100475.85;;;6.04;87.27
62928;BME280;51070;52.236;-0.892;2023-03-19T06:15:42;100481.08;;;6.02;87.22
62928;BME280;51070;52.236;-0.892;2023-03-19T06:18:08;100485.73;;;5.98;87.27
62928;BME280;51070;52.236;-0.892;2023-03-19T06:20:33;100490.83;;;5.94;87.20
62928;BME280;51070;52.236;-0.892;2023-03-19T06:22:58;100495.63;;;5.90;87.63
62928;BME280;51070;52.236;-0.892;2023-03-19T06:25:24;100503.04;;;5.87;87.62
62928;BME280;51070;52.236;-0.892;2023-03-19T06:27:49;100508.00;;;5.84;87.59
62928;BME280;51070;52.236;-0.892;2023-03-19T06:30:15;100509.92;;;5.81;87.76
62928;BME280;51070;52.236;-0.892;2023-03-19T06:32:41;100513.91;;;5.79;87.83
62928;BME280;51070;52.236;-0.892;2023-03-19T06:35:07;100513.36;;;5.78;88.07
62928;BME280;51070;52.236;-0.892;2023-03-19T06:37:32;100518.63;;;5.80;88.08
62928;BME280;51070;52.236;-0.892;2023-03-19T06:39:58;100516.77;;;5.84;87.97
62928;BME280;51070;52.236;-0.892;2023-03-19T06:42:24;100519.95;;;5.86;87.93
62928;BME280;51070;52.236;-0.892;2023-03-19T06:44:49;100523.11;;;5.87;88.04
62928;BME280;51070;52.236;-0.892;2023-03-19T06:47:15;100526.58;;;5.88;87.63
62928;BME280;51070;52.236;-0.892;2023-03-19T06:49:40;100531.52;;;5.87;87.52
62928;BME280;51070;52.236;-0.892;2023-03-19T06:52:06;100536.60;;;5.86;87.35
62928;BME280;51070;52.236;-0.892;2023-03-19T06:54:32;100541.02;;;5.85;87.24
62928;BME280;51070;52.236;-0.892;2023-03-19T06:56:58;100546.19;;;5.83;87.21
62928;BME280;51070;52.236;-0.892;2023-03-19T06:59:24;100544.69;;;5.80;87.59
62928;BME280;51070;52.236;-0.892;2023-03-19T07:01:50;100544.95;;;5.78;87.18
62928;BME280;51070;52.236;-0.892;2023-03-19T07:04:17;100549.09;;;5.75;87.14
62928;BME280;51070;52.236;-0.892;2023-03-19T07:06:42;100551.70;;;5.73;86.98
62928;BME280;51070;52.236;-0.892;2023-03-19T07:09:08;100551.83;;;5.72;87.22
62928;BME280;51070;52.236;-0.892;2023-03-19T07:11:33;100557.42;;;5.71;87.11
62928;BME280;51070;52.236;-0.892;2023-03-19T07:13:59;100564.33;;;5.71;87.24
62928;BME280;51070;52.236;-0.892;2023-03-19T07:16:24;100564.14;;;5.71;87.30
62928;BME280;51070;52.236;-0.892;2023-03-19T07:18:50;100567.11;;;5.76;87.77
62928;BME280;51070;52.236;-0.892;2023-03-19T07:21:15;100570.25;;;5.94;87.60
62928;BME280;51070;52.236;-0.892;2023-03-19T07:23:41;100573.74;;;6.16;87.24
62928;BME280;51070;52.236;-0.892;2023-03-19T07:26:06;100573.34;;;6.30;87.15
62928;BME280;51070;52.236;-0.892;2023-03-19T07:28:32;100576.76;;;6.41;86.49
62928;BME280;51070;52.236;-0.892;2023-03-19T07:30:57;100578.70;;;6.49;86.09
62928;BME280;51070;52.236;-0.892;2023-03-19T07:33:23;100578.80;;;6.55;85.89
62928;BME280;51070;52.236;-0.892;2023-03-19T07:35:49;100581.27;;;6.64;85.98
62928;BME280;51070;52.236;-0.892;2023-03-19T07:38:14;100583.63;;;6.70;85.83
62928;BME280;51070;52.236;-0.892;2023-03-19T07:40:40;100590.95;;;6.77;85.75
62928;BME280;51070;52.236;-0.892;2023-03-19T07:43:06;100592.83;;;6.84;85.69
62928;BME280;51070;52.236;-0.892;2023-03-19T07:45:32;100600.02;;;6.91;85.39
62928;BME280;51070;52.236;-0.892;2023-03-19T07:47:57;100604.48;;;6.99;85.25
62928;BME280;51070;52.236;-0.892;2023-03-19T07:50:22;100603.57;;;7.05;85.23
62928;BME280;51070;52.236;-0.892;2023-03-19T07:52:48;100608.36;;;7.13;84.66
62928;BME280;51070;52.236;-0.892;2023-03-19T07:55:16;100606.20;;;7.18;84.25
62928;BME280;51070;52.236;-0.892;2023-03-19T07:57:42;100604.83;;;7.26;83.94
62928;BME280;51070;52.236;-0.892;2023-03-19T08:00:09;100606.67;;;7.33;83.18
62928;BME280;51070;52.236;-0.892;2023-03-19T08:02:35;100605.73;;;7.35;82.84
62928;BME280;51070;52.236;-0.892;2023-03-19T08:05:00;100610.16;;;7.38;82.94
62928;BME280;51070;52.236;-0.892;2023-03-19T08:07:30;100614.92;;;7.41;82.49
62928;BME280;51070;52.236;-0.892;2023-03-19T08:09:56;100617.78;;;7.47;82.09
62928;BME280;51070;52.236;-0.892;2023-03-19T08:12:23;100619.41;;;7.57;81.99
62928;BME280;51070;52.236;-0.892;2023-03-19T08:14:49;100619.36;;;7.68;81.83
62928;BME280;51070;52.236;-0.892;2023-03-19T08:17:15;100624.38;;;7.77;81.71
62928;BME280;51070;52.236;-0.892;2023-03-19T08:19:41;100623.39;;;7.82;81.40
62928;BME280;51070;52.236;-0.892;2023-03-19T08:22:06;100630.52;;;7.88;81.30
62928;BME280;51070;52.236;-0.892;2023-03-19T08:24:32;100633.89;;;7.99;80.60
62928;BME280;51070;52.236;-0.892;2023-03-19T08:26:57;100639.20;;;8.11;80.50
62928;BME280;51070;52.236;-0.892;2023-03-19T08:29:23;100651.45;;;8.28;79.93
62928;BME280;51070;52.236;-0.892;2023-03-19T08:31:52;100650.48;;;8.37;79.44
62928;BME280;51070;52.236;-0.892;2023-03-19T08:34:18;100653.02;;;8.45;79.16
62928;BME280;51070;52.236;-0.892;2023-03-19T08:36:45;100656.29;;;8.50;79.02
62928;BME280;51070;52.236;-0.892;2023-03-19T08:39:10;100665.73;;;8.57;78.47
62928;BME280;51070;52.236;-0.892;2023-03-19T08:41:36;100664.90;;;8.63;78.27
62928;BME280;51070;52.236;-0.892;2023-03-19T08:44:01;100667.69;;;8.68;78.23
62928;BME280;51070;52.236;-0.892;2023-03-19T08:46:27;100669.04;;;8.71;78.60
62928;BME280;51070;52.236;-0.892;2023-03-19T08:48:53;100664.19;;;8.75;77.88
62928;BME280;51070;52.236;-0.892;2023-03-19T08:51:19;100661.55;;;8.79;77.73
62928;BME280;51070;52.236;-0.892;2023-03-19T08:53:45;100662.87;;;8.86;77.37
62928;BME280;51070;52.236;-0.892;2023-03-19T08:56:11;100665.02;;;8.98;76.97
62928;BME280;51070;52.236;-0.892;2023-03-19T08:58:36;100673.16;;;9.08;76.91
62928;BME280;51070;52.236;-0.892;2023-03-19T09:01:10;100676.05;;;9.16;76.61
62928;BME280;51070;52.236;-0.892;2023-03-19T09:03:37;100673.84;;;9.26;76.53
62928;BME280;51070;52.236;-0.892;2023-03-19T09:06:05;100673.77;;;9.43;75.73
62928;BME280;51070;52.236;-0.892;2023-03-19T09:08:31;100670.48;;;9.67;75.05
62928;BME280;51070;52.236;-0.892;2023-03-19T09:10:57;100674.23;;;10.01;74.47
62928;BME280;51070;52.236;-0.892;2023-03-19T09:13:23;100684.98;;;10.32;73.99
62928;BME280;51070;52.236;-0.892;2023-03-19T09:15:49;100685.77;;;10.51;72.61
62928;BME280;51070;52.236;-0.892;2023-03-19T09:18:15;100685.77;;;10.68;72.36
62928;BME280;51070;52.236;-0.892;2023-03-19T09:20:41;100685.36;;;11.11;70.60
62928;BME280;51070;52.236;-0.892;2023-03-19T09:23:07;100687.89;;;11.32;69.91
62928;BME280;51070;52.236;-0.892;2023-03-19T09:25:33;100692.19;;;11.31;70.24
62928;BME280;51070;52.236;-0.892;2023-03-19T09:27:58;100698.40;;;11.25;69.94
62928;BME280;51070;52.236;-0.892;2023-03-19T09:30:23;100703.56;;;11.19;69.74
62928;BME280;51070;52.236;-0.892;2023-03-19T09:32:49;100705.88;;;11.21;69.76
62928;BME280;51070;52.236;-0.892;2023-03-19T09:35:15;100708.37;;;11.35;69.00
62928;BME280;51070;52.236;-0.892;2023-03-19T09:37:41;100712.81;;;11.75;68.88
62928;BME280;51070;52.236;-0.892;2023-03-19T09:40:20;100713.52;;;11.88;68.56
62928;BME280;51070;52.236;-0.892;2023-03-19T09:45:49;100719.12;;;11.78;68.03
62928;BME280;51070;52.236;-0.892;2023-03-19T09:48:29;100718.66;;;11.69;68.01
62928;BME280;51070;52.236;-0.892;2023-03-19T09:50:58;100723.80;;;11.77;67.82
62928;BME280;51070;52.236;-0.892;2023-03-19T09:55:57;100733.06;;;11.88;67.10
62928;BME280;51070;52.236;-0.892;2023-03-19T09:58:29;100734.86;;;11.83;67.15
62928;BME280;51070;52.236;-0.892;2023-03-19T10:00:56;100734.04;;;11.67;67.30
62928;BME280;51070;52.236;-0.892;2023-03-19T10:17:00;100743.68;;;11.96;66.75
62928;BME280;51070;52.236;-0.892;2023-03-19T10:19:44;100746.64;;;12.22;66.07
62928;BME280;51070;52.236;-0.892;2023-03-19T10:22:16;100742.48;;;12.71;64.37
62928;BME280;51070;52.236;-0.892;2023-03-19T10:24:44;100740.09;;;13.41;63.13
62928;BME280;51070;52.236;-0.892;2023-03-19T10:27:15;100745.70;;;13.60;62.53
62928;BME280;51070;52.236;-0.892;2023-03-19T10:29:42;100742.45;;;13.63;61.85
62928;BME280;51070;52.236;-0.892;2023-03-19T10:34:41;100749.97;;;14.29;60.31
62928;BME280;51070;52.236;-0.892;2023-03-19T10:37:21;100750.29;;;14.28;59.52
62928;BME280;51070;52.236;-0.892;2023-03-19T10:39:50;100749.77;;;14.47;59.23
62928;BME280;51070;52.236;-0.892;2023-03-19T10:45:35;100739.69;;;15.54;56.46
62928;BME280;51070;52.236;-0.892;2023-03-19T10:48:03;100739.10;;;15.61;56.06
62928;BME280;51070;52.236;-0.892;2023-03-19T10:50:33;100741.46;;;15.18;56.15
62928;BME280;51070;52.236;-0.892;2023-03-19T10:55:55;100743.73;;;14.02;57.14
62928;BME280;51070;52.236;-0.892;2023-03-19T10:58:25;100749.45;;;13.66;57.98
62928;BME280;51070;52.236;-0.892;2023-03-19T11:01:09;100750.89;;;13.34;58.54
62928;BME280;51070;52.236;-0.892;2023-03-19T11:03:55;100750.23;;;13.13;58.96
62928;BME280;51070;52.236;-0.892;2023-03-19T11:06:26;100758.56;;;13.06;59.33
62928;BME280;51070;52.236;-0.892;2023-03-19T11:09:12;100762.23;;;13.08;59.31
62928;BME280;51070;52.236;-0.892;2023-03-19T11:11:50;100762.11;;;13.16;59.03
62928;BME280;51070;52.236;-0.892;2023-03-19T11:14:28;100757.73;;;13.54;58.25
62928;BME280;51070;52.236;-0.892;2023-03-19T11:19:32;100757.83;;;13.94;57.68
62928;BME280;51070;52.236;-0.892;2023-03-19T11:24:35;100766.03;;;14.05;57.15
62928;BME280;51070;52.236;-0.892;2023-03-19T11:27:01;100759.71;;;13.83;56.63
62928;BME280;51070;52.236;-0.892;2023-03-19T11:29:27;100755.06;;;13.85;56.42
62928;BME280;51070;52.236;-0.892;2023-03-19T11:34:30;100759.71;;;13.92;55.60
62928;BME280;51070;52.236;-0.892;2023-03-19T11:37:18;100763.52;;;13.66;54.76
62928;BME280;51070;52.236;-0.892;2023-03-19T11:50:59;100765.24;;;13.73;55.31
62928;BME280;51070;52.236;-0.892;2023-03-19T11:56:33;100767.48;;;14.18;53.90
62928;BME280;51070;52.236;-0.892;2023-03-19T12:13:01;100759.22;;;14.03;54.22
62928;BME280;51070;52.236;-0.892;2023-03-19T12:15:54;100760.59;;;14.21;53.33
62928;BME280;51070;52.236;-0.892;2023-03-19T12:34:38;100753.09;;;14.58;53.20
62928;BME280;51070;52.236;-0.892;2023-03-19T12:37:21;100757.34;;;14.61;52.31
62928;BME280;51070;52.236;-0.892;2023-03-19T12:40:19;100759.39;;;14.60;52.27
62928;BME280;51070;52.236;-0.892;2023-03-19T12:42:50;100756.91;;;14.58;51.87
62928;BME280;51070;52.236;-0.892;2023-03-19T12:45:28;100758.34;;;14.60;51.71
62928;BME280;51070;52.236;-0.892;2023-03-19T12:50:37;100768.83;;;14.53;51.16
62928;BME280;51070;52.236;-0.892;2023-03-19T12:53:12;100768.34;;;14.45;50.69
62928;BME280;51070;52.236;-0.892;2023-03-19T12:55:48;100767.71;;;14.38;51.53
62928;BME280;51070;52.236;-0.892;2023-03-19T12:58:23;100769.83;;;14.31;52.52
62928;BME280;51070;52.236;-0.892;2023-03-19T13:01:04;100771.70;;;14.20;53.35
62928;BME280;51070;52.236;-0.892;2023-03-19T13:04:27;100778.36;;;14.05;53.56
62928;BME280;51070;52.236;-0.892;2023-03-19T13:07:00;100773.44;;;13.75;53.75
62928;BME280;51070;52.236;-0.892;2023-03-19T13:09:41;100766.89;;;13.60;54.09
62928;BME280;51070;52.236;-0.892;2023-03-19T13:12:24;100763.73;;;13.51;54.29
62928;BME280;51070;52.236;-0.892;2023-03-19T13:22:50;100765.73;;;13.63;53.71
62928;BME280;51070;52.236;-0.892;2023-03-19T13:25:20;100769.30;;;13.76;53.73
62928;BME280;51070;52.236;-0.892;2023-03-19T13:27:54;100764.71;;;13.82;53.17
62928;BME280;51070;52.236;-0.892;2023-03-19T13:30:21;100762.26;;;13.80;52.51
62928;BME280;51070;52.236;-0.892;2023-03-19T13:32:52;100764.31;;;13.70;51.45
62928;BME280;51070;52.236;-0.892;2023-03-19T13:38:14;100772.61;;;13.69;51.47
62928;BME280;51070;52.236;-0.892;2023-03-19T13:40:49;100770.02;;;13.61;51.16
62928;BME280;51070;52.236;-0.892;2023-03-19T13:51:41;100783.33;;;13.19;52.24
62928;BME280;51070;52.236;-0.892;2023-03-19T13:59:38;100783.84;;;13.04;52.71
62928;BME280;51070;52.236;-0.892;2023-03-19T14:07:23;100789.25;;;13.42;51.41
62928;BME280;51070;52.236;-0.892;2023-03-19T14:12:36;100782.52;;;13.77;50.81
62928;BME280;51070;52.236;-0.892;2023-03-19T14:17:37;100788.67;;;13.81;50.91
62928;BME280;51070;52.236;-0.892;2023-03-19T14:20:22;100795.23;;;13.78;51.13
62928;BME280;51070;52.236;-0.892;2023-03-19T14:23:41;100795.42;;;13.72;51.68
62928;BME280;51070;52.236;-0.892;2023-03-19T14:26:04;100789.89;;;13.64;51.83
62928;BME280;51070;52.236;-0.892;2023-03-19T14:31:25;100806.33;;;13.54;51.90
62928;BME280;51070;52.236;-0.892;2023-03-19T14:37:03;100806.16;;;13.38;52.52
62928;BME280;51070;52.236;-0.892;2023-03-19T14:39:41;100813.11;;;13.30;52.99
62928;BME280;51070;52.236;-0.892;2023-03-19T14:42:17;100817.72;;;13.27;52.91
62928;BME280;51070;52.236;-0.892;2023-03-19T14:44:52;100823.66;;;13.21;52.78
62928;BME280;51070;52.236;-0.892;2023-03-19T14:53:02;100828.30;;;12.98;53.45
62928;BME280;51070;52.236;-0.892;2023-03-19T14:55:35;100834.36;;;12.91;53.93
62928;BME280;51070;52.236;-0.892;2023-03-19T14:58:02;100843.04;;;12.85;54.20
62928;BME280;51070;52.236;-0.892;2023-03-19T15:00:39;100838.71;;;12.71;54.71
62928;BME280;51070;52.236;-0.892;2023-03-19T15:03:20;100832.63;;;12.64;55.04
62928;BME280;51070;52.236;-0.892;2023-03-19T15:05:47;100832.28;;;12.63;55.33